sensor_id;sensor_type;location;lat;lon;timestamp;temperature;humidity
14277;DHT22;7222;57.346;12.150;2022-12-29T00:01:47;7.00;99.90
14277;DHT22;7222;57.346;12.150;2022-12-29T00:04:15;7.00;99.90
14277;DHT22;7222;57.346;12.150;2022-12-29T00:06:44;7.00;99.90
14277;DHT22;7222;57.346;12.150;2022-12-29T00:09:11;7.10;99.90
14277;DHT22;7222;57.346;12.150;2022-12-29T00:11:38;7.10;99.90
14277;DHT22;7222;57.346;12.150;2022-12-29T00:14:06;7.10;99.90
14277;DHT22;7222;57.346;12.150;2022-12-29T00:16:50;7.10;99.90
14277;DHT22;7222;57.346;12.150;2022-12-29T00:19:17;7.10;99.90
14277;DHT22;7222;57.346;12.150;2022-12-29T00:22:03;7.10;99.90
14277;DHT22;7222;57.346;12.150;2022-12-29T00:24:48;7.10;99.90
14277;DHT22;7222;57.346;12.150;2022-12-29T00:27:32;7.10;99.90
14277;DHT22;7222;57.346;12.150;2022-12-29T00:30:18;7.10;99.90
14277;DHT22;7222;57.346;12.150;2022-12-29T00:33:09;7.00;99.90
14277;DHT22;7222;57.346;12.150;2022-12-29T00:35:55;7.00;99.90
14277;DHT22;7222;57.346;12.150;2022-12-29T00:38:24;7.00;99.90
14277;DHT22;7222;57.346;12.150;2022-12-29T00:41:09;7.00;99.90
14277;DHT22;7222;57.346;12.150;2022-12-29T00:43:53;7.00;99.90
14277;DHT22;7222;57.346;12.150;2022-12-29T00:46:32;7.00;99.90
14277;DHT22;7222;57.346;12.150;2022-12-29T00:48:59;7.00;99.90
14277;DHT22;7222;57.346;12.150;2022-12-29T00:51:44;7.00;99.90
14277;DHT22;7222;57.346;12.150;2022-12-29T00:54:13;7.00;99.90
14277;DHT22;7222;57.346;12.150;2022-12-29T00:56:55;7.00;99.90
14277;DHT22;7222;57.346;12.150;2022-12-29T00:59:22;7.00;99.90
14277;DHT22;7222;57.346;12.150;2022-12-29T01:01:50;7.10;99.90
14277;DHT22;7222;57.346;12.150;2022-12-29T01:04:18;7.00;99.90
14277;DHT22;7222;57.346;12.150;2022-12-29T01:06:45;7.10;99.90
14277;DHT22;7222;57.346;12.150;2022-12-29T01:09:14;7.10;99.90
14277;DHT22;7222;57.346;12.150;2022-12-29T01:11:59;7.00;99.90
14277;DHT22;7222;57.346;12.150;2022-12-29T01:14:26;7.10;99.90
14277;DHT22;7222;57.346;12.150;2022-12-29T01:16:55;7.00;99.90
14277;DHT22;7222;57.346;12.150;2022-12-29T01:19:22;7.10;99.90
14277;DHT22;7222;57.346;12.150;2022-12-29T01:21:49;7.10;99.90
14277;DHT22;7222;57.346;12.150;2022-12-29T01:24:19;7.10;99.90
14277;DHT22;7222;57.346;12.150;2022-12-29T01:26:47;7.10;99.90
14277;DHT22;7222;57.346;12.150;2022-12-29T01:29:15;7.20;99.90
14277;DHT22;7222;57.346;12.150;2022-12-29T01:31:42;7.20;99.90
14277;DHT22;7222;57.346;12.150;2022-12-29T01:34:09;7.20;99.90
14277;DHT22;7222;57.346;12.150;2022-12-29T01:36:36;7.20;99.90
14277;DHT22;7222;57.346;12.150;2022-12-29T01:39:03;7.20;99.90
14277;DHT22;7222;57.346;12.150;2022-12-29T01:41:31;7.20;99.90
14277;DHT22;7222;57.346;12.150;2022-12-29T01:43:59;7.20;99.90
14277;DHT22;7222;57.346;12.150;2022-12-29T01:46:30;7.20;99.90
14277;DHT22;7222;57.346;12.150;2022-12-29T01:49:03;7.20;99.90
14277;DHT22;7222;57.346;12.150;2022-12-29T01:51:32;7.20;99.90
14277;DHT22;7222;57.346;12.150;2022-12-29T01:54:03;7.20;99.90
14277;DHT22;7222;57.346;12.150;2022-12-29T01:56:33;7.20;99.90
14277;DHT22;7222;57.346;12.150;2022-12-29T01:59:03;7.30;99.90
14277;DHT22;7222;57.346;12.150;2022-12-29T02:01:32;7.30;99.90
14277;DHT22;7222;57.346;12.150;2022-12-29T02:03:59;7.30;99.90
14277;DHT22;7222;57.346;12.150;2022-12-29T02:06:29;7.30;99.90
14277;DHT22;7222;57.346;12.150;2022-12-29T02:08:58;7.20;99.90
14277;DHT22;7222;57.346;12.150;2022-12-29T02:11:26;7.30;99.90
14277;DHT22;7222;57.346;12.150;2022-12-29T02:13:57;7.30;99.90
14277;DHT22;7222;57.346;12.150;2022-12-29T02:16:32;7.30;99.90
14277;DHT22;7222;57.346;12.150;2022-12-29T02:19:21;7.30;99.90
14277;DHT22;7222;57.346;12.150;2022-12-29T02:22:00;7.30;99.90
14277;DHT22;7222;57.346;12.150;2022-12-29T02:27:45;7.30;99.90
14277;DHT22;7222;57.346;12.150;2022-12-29T02:30:37;7.30;99.90
14277;DHT22;7222;57.346;12.150;2022-12-29T02:33:13;7.30;99.90
14277;DHT22;7222;57.346;12.150;2022-12-29T02:35:50;7.30;99.90
14277;DHT22;7222;57.346;12.150;2022-12-29T02:38:28;7.30;99.90
14277;DHT22;7222;57.346;12.150;2022-12-29T02:41:05;7.30;99.90
14277;DHT22;7222;57.346;12.150;2022-12-29T02:43:36;7.30;99.90
14277;DHT22;7222;57.346;12.150;2022-12-29T02:46:12;7.30;99.90
14277;DHT22;7222;57.346;12.150;2022-12-29T02:48:47;7.30;99.90
14277;DHT22;7222;57.346;12.150;2022-12-29T02:51:20;7.30;99.90
14277;DHT22;7222;57.346;12.150;2022-12-29T02:53:51;7.30;99.90
14277;DHT22;7222;57.346;12.150;2022-12-29T02:56:36;7.30;99.90
14277;DHT22;7222;57.346;12.150;2022-12-29T02:59:03;7.30;99.90
14277;DHT22;7222;57.346;12.150;2022-12-29T03:01:45;7.40;99.90
14277;DHT22;7222;57.346;12.150;2022-12-29T03:04:35;7.40;99.90
14277;DHT22;7222;57.346;12.150;2022-12-29T03:07:11;7.50;99.90
14277;DHT22;7222;57.346;12.150;2022-12-29T03:09:49;7.50;99.90
14277;DHT22;7222;57.346;12.150;2022-12-29T03:12:25;7.50;99.90
14277;DHT22;7222;57.346;12.150;2022-12-29T03:15:13;7.50;99.90
14277;DHT22;7222;57.346;12.150;2022-12-29T03:18:06;7.60;99.90
14277;DHT22;7222;57.346;12.150;2022-12-29T03:20:39;7.60;99.90
14277;DHT22;7222;57.346;12.150;2022-12-29T03:23:08;7.60;99.90
14277;DHT22;7222;57.346;12.150;2022-12-29T03:25:39;7.60;99.90
14277;DHT22;7222;57.346;12.150;2022-12-29T03:28:09;7.60;99.90
14277;DHT22;7222;57.346;12.150;2022-12-29T03:30:39;7.60;99.90
14277;DHT22;7222;57.346;12.150;2022-12-29T03:33:10;7.70;99.90
14277;DHT22;7222;57.346;12.150;2022-12-29T03:35:41;7.70;99.90
14277;DHT22;7222;57.346;12.150;2022-12-29T03:38:14;7.70;99.90
14277;DHT22;7222;57.346;12.150;2022-12-29T03:40:44;7.60;99.90
14277;DHT22;7222;57.346;12.150;2022-12-29T03:43:13;7.60;99.90
14277;DHT22;7222;57.346;12.150;2022-12-29T03:45:40;7.60;99.90
14277;DHT22;7222;57.346;12.150;2022-12-29T03:48:08;7.60;99.90
14277;DHT22;7222;57.346;12.150;2022-12-29T03:50:35;7.50;99.90
14277;DHT22;7222;57.346;12.150;2022-12-29T03:53:02;7.60;99.90
14277;DHT22;7222;57.346;12.150;2022-12-29T03:55:29;7.50;99.90
14277;DHT22;7222;57.346;12.150;2022-12-29T03:57:56;7.60;99.90
14277;DHT22;7222;57.346;12.150;2022-12-29T04:00:23;7.60;99.90
14277;DHT22;7222;57.346;12.150;2022-12-29T04:02:50;7.60;99.90
14277;DHT22;7222;57.346;12.150;2022-12-29T04:05:19;7.50;99.90
14277;DHT22;7222;57.346;12.150;2022-12-29T04:07:46;7.50;99.90
14277;DHT22;7222;57.346;12.150;2022-12-29T04:10:13;7.50;99.90
14277;DHT22;7222;57.346;12.150;2022-12-29T04:12:40;7.50;99.90
14277;DHT22;7222;57.346;12.150;2022-12-29T04:15:08;7.50;99.90
14277;DHT22;7222;57.346;12.150;2022-12-29T04:17:36;7.50;99.90
14277;DHT22;7222;57.346;12.150;2022-12-29T04:20:03;7.50;99.90
14277;DHT22;7222;57.346;12.150;2022-12-29T04:22:50;7.40;99.90
14277;DHT22;7222;57.346;12.150;2022-12-29T04:25:23;7.40;99.90
14277;DHT22;7222;57.346;12.150;2022-12-29T04:27:50;7.30;99.90
14277;DHT22;7222;57.346;12.150;2022-12-29T04:30:17;7.30;99.90
14277;DHT22;7222;57.346;12.150;2022-12-29T04:32:44;7.40;99.90
14277;DHT22;7222;57.346;12.150;2022-12-29T04:35:11;7.40;99.90
14277;DHT22;7222;57.346;12.150;2022-12-29T04:37:38;7.30;99.90
14277;DHT22;7222;57.346;12.150;2022-12-29T04:40:08;7.30;99.90
14277;DHT22;7222;57.346;12.150;2022-12-29T04:42:35;7.30;99.90
14277;DHT22;7222;57.346;12.150;2022-12-29T04:45:03;7.30;99.90
14277;DHT22;7222;57.346;12.150;2022-12-29T04:47:30;7.30;99.90
14277;DHT22;7222;57.346;12.150;2022-12-29T04:49:57;7.20;99.90
14277;DHT22;7222;57.346;12.150;2022-12-29T04:52:24;7.20;99.90
14277;DHT22;7222;57.346;12.150;2022-12-29T04:54:51;7.20;99.90
14277;DHT22;7222;57.346;12.150;2022-12-29T04:57:19;7.20;99.90
14277;DHT22;7222;57.346;12.150;2022-12-29T04:59:46;7.20;99.90
14277;DHT22;7222;57.346;12.150;2022-12-29T05:02:13;7.20;99.90
14277;DHT22;7222;57.346;12.150;2022-12-29T05:04:40;7.20;99.90
14277;DHT22;7222;57.346;12.150;2022-12-29T05:07:07;7.30;99.90
14277;DHT22;7222;57.346;12.150;2022-12-29T05:09:34;7.30;99.90
14277;DHT22;7222;57.346;12.150;2022-12-29T05:12:01;7.30;99.90
14277;DHT22;7222;57.346;12.150;2022-12-29T05:14:30;7.30;99.90
14277;DHT22;7222;57.346;12.150;2022-12-29T05:16:57;7.30;99.90
14277;DHT22;7222;57.346;12.150;2022-12-29T05:19:24;7.30;99.90
14277;DHT22;7222;57.346;12.150;2022-12-29T05:21:51;7.30;99.90
14277;DHT22;7222;57.346;12.150;2022-12-29T05:24:18;7.20;99.90
14277;DHT22;7222;57.346;12.150;2022-12-29T05:26:45;7.20;99.90
14277;DHT22;7222;57.346;12.150;2022-12-29T05:29:12;7.20;99.90
14277;DHT22;7222;57.346;12.150;2022-12-29T05:31:40;7.30;99.90
14277;DHT22;7222;57.346;12.150;2022-12-29T05:34:09;7.20;99.90
14277;DHT22;7222;57.346;12.150;2022-12-29T05:36:36;7.20;99.90
14277;DHT22;7222;57.346;12.150;2022-12-29T05:39:03;7.30;99.90
14277;DHT22;7222;57.346;12.150;2022-12-29T05:41:30;7.30;99.90
14277;DHT22;7222;57.346;12.150;2022-12-29T05:43:57;7.30;99.90
14277;DHT22;7222;57.346;12.150;2022-12-29T05:46:24;7.20;99.90
14277;DHT22;7222;57.346;12.150;2022-12-29T05:48:52;7.30;99.90
14277;DHT22;7222;57.346;12.150;2022-12-29T05:51:19;7.30;99.90
14277;DHT22;7222;57.346;12.150;2022-12-29T05:53:46;7.30;99.90
14277;DHT22;7222;57.346;12.150;2022-12-29T05:56:13;7.40;99.90
14277;DHT22;7222;57.346;12.150;2022-12-29T05:58:40;7.30;99.90
14277;DHT22;7222;57.346;12.150;2022-12-29T06:01:08;7.30;99.90
14277;DHT22;7222;57.346;12.150;2022-12-29T06:03:34;7.40;99.90
14277;DHT22;7222;57.346;12.150;2022-12-29T06:06:04;7.40;99.90
14277;DHT22;7222;57.346;12.150;2022-12-29T06:08:31;7.50;99.90
14277;DHT22;7222;57.346;12.150;2022-12-29T06:10:58;7.50;99.90
14277;DHT22;7222;57.346;12.150;2022-12-29T06:13:25;7.50;99.90
14277;DHT22;7222;57.346;12.150;2022-12-29T06:15:53;7.60;99.90
14277;DHT22;7222;57.346;12.150;2022-12-29T06:18:20;7.60;99.90
14277;DHT22;7222;57.346;12.150;2022-12-29T06:20:47;7.60;99.90
14277;DHT22;7222;57.346;12.150;2022-12-29T06:23:15;7.60;99.90
14277;DHT22;7222;57.346;12.150;2022-12-29T06:25:52;7.60;99.90
14277;DHT22;7222;57.346;12.150;2022-12-29T06:28:20;7.60;99.90
14277;DHT22;7222;57.346;12.150;2022-12-29T06:30:47;7.60;99.90
14277;DHT22;7222;57.346;12.150;2022-12-29T06:33:14;7.60;99.90
14277;DHT22;7222;57.346;12.150;2022-12-29T06:35:42;7.70;99.90
14277;DHT22;7222;57.346;12.150;2022-12-29T06:38:09;7.70;99.90
14277;DHT22;7222;57.346;12.150;2022-12-29T06:40:38;7.70;99.90
14277;DHT22;7222;57.346;12.150;2022-12-29T06:43:06;7.70;99.90
14277;DHT22;7222;57.346;12.150;2022-12-29T06:45:34;7.80;99.90
14277;DHT22;7222;57.346;12.150;2022-12-29T06:48:01;7.70;99.90
14277;DHT22;7222;57.346;12.150;2022-12-29T06:50:28;7.80;99.90
14277;DHT22;7222;57.346;12.150;2022-12-29T06:52:55;7.70;99.90
14277;DHT22;7222;57.346;12.150;2022-12-29T06:55:22;7.70;99.90
14277;DHT22;7222;57.346;12.150;2022-12-29T06:57:54;7.70;99.90
14277;DHT22;7222;57.346;12.150;2022-12-29T07:00:21;7.80;99.90
14277;DHT22;7222;57.346;12.150;2022-12-29T07:02:48;7.70;99.90
14277;DHT22;7222;57.346;12.150;2022-12-29T07:05:15;7.80;99.90
14277;DHT22;7222;57.346;12.150;2022-12-29T07:07:42;7.80;99.90
14277;DHT22;7222;57.346;12.150;2022-12-29T07:10:09;7.70;99.90
14277;DHT22;7222;57.346;12.150;2022-12-29T07:12:36;7.80;99.90
14277;DHT22;7222;57.346;12.150;2022-12-29T07:15:06;7.70;99.90
14277;DHT22;7222;57.346;12.150;2022-12-29T07:17:33;7.70;99.90
14277;DHT22;7222;57.346;12.150;2022-12-29T07:20:00;7.80;99.90
14277;DHT22;7222;57.346;12.150;2022-12-29T07:22:27;7.80;99.90
14277;DHT22;7222;57.346;12.150;2022-12-29T07:24:54;7.80;99.90
14277;DHT22;7222;57.346;12.150;2022-12-29T07:27:21;7.80;99.90
14277;DHT22;7222;57.346;12.150;2022-12-29T07:29:48;7.90;99.90
14277;DHT22;7222;57.346;12.150;2022-12-29T07:32:17;7.80;99.90
14277;DHT22;7222;57.346;12.150;2022-12-29T07:34:44;7.80;99.90
14277;DHT22;7222;57.346;12.150;2022-12-29T07:37:14;7.80;99.90
14277;DHT22;7222;57.346;12.150;2022-12-29T07:39:41;7.80;99.90
14277;DHT22;7222;57.346;12.150;2022-12-29T07:42:08;7.80;99.90
14277;DHT22;7222;57.346;12.150;2022-12-29T07:44:35;7.70;99.90
14277;DHT22;7222;57.346;12.150;2022-12-29T07:47:03;7.70;99.90
14277;DHT22;7222;57.346;12.150;2022-12-29T07:49:31;7.80;99.90
14277;DHT22;7222;57.346;12.150;2022-12-29T07:51:58;7.70;99.90
14277;DHT22;7222;57.346;12.150;2022-12-29T07:54:25;7.70;99.90
14277;DHT22;7222;57.346;12.150;2022-12-29T07:56:53;7.80;99.90
14277;DHT22;7222;57.346;12.150;2022-12-29T07:59:21;7.70;99.90
14277;DHT22;7222;57.346;12.150;2022-12-29T08:01:48;7.70;99.90
14277;DHT22;7222;57.346;12.150;2022-12-29T08:04:15;7.80;99.90
14277;DHT22;7222;57.346;12.150;2022-12-29T08:06:43;7.80;99.90
14277;DHT22;7222;57.346;12.150;2022-12-29T08:09:11;7.90;99.90
14277;DHT22;7222;57.346;12.150;2022-12-29T08:11:38;7.80;99.90
14277;DHT22;7222;57.346;12.150;2022-12-29T08:14:05;7.80;99.90
14277;DHT22;7222;57.346;12.150;2022-12-29T08:16:32;7.80;99.90
14277;DHT22;7222;57.346;12.150;2022-12-29T08:18:59;7.80;99.90
14277;DHT22;7222;57.346;12.150;2022-12-29T08:21:27;7.80;99.90
14277;DHT22;7222;57.346;12.150;2022-12-29T08:23:56;7.90;99.90
14277;DHT22;7222;57.346;12.150;2022-12-29T08:26:24;7.90;99.90
14277;DHT22;7222;57.346;12.150;2022-12-29T08:28:52;7.80;99.90
14277;DHT22;7222;57.346;12.150;2022-12-29T08:31:20;7.80;99.90
14277;DHT22;7222;57.346;12.150;2022-12-29T08:33:47;7.80;99.90
14277;DHT22;7222;57.346;12.150;2022-12-29T08:36:14;7.70;99.90
14277;DHT22;7222;57.346;12.150;2022-12-29T08:38:41;7.80;99.90
14277;DHT22;7222;57.346;12.150;2022-12-29T08:41:09;7.80;99.90
14277;DHT22;7222;57.346;12.150;2022-12-29T08:43:36;7.80;99.90
14277;DHT22;7222;57.346;12.150;2022-12-29T08:46:03;7.80;99.90
14277;DHT22;7222;57.346;12.150;2022-12-29T08:48:30;7.80;99.90
14277;DHT22;7222;57.346;12.150;2022-12-29T08:50:57;7.90;99.90
14277;DHT22;7222;57.346;12.150;2022-12-29T08:53:24;7.80;99.90
14277;DHT22;7222;57.346;12.150;2022-12-29T08:55:55;7.80;99.90
14277;DHT22;7222;57.346;12.150;2022-12-29T08:58:25;7.80;99.90
14277;DHT22;7222;57.346;12.150;2022-12-29T09:00:52;7.80;99.90
14277;DHT22;7222;57.346;12.150;2022-12-29T09:03:20;7.80;99.90
14277;DHT22;7222;57.346;12.150;2022-12-29T09:05:48;7.90;99.90
14277;DHT22;7222;57.346;12.150;2022-12-29T09:08:15;7.90;99.90
14277;DHT22;7222;57.346;12.150;2022-12-29T09:10:43;7.80;99.90
14277;DHT22;7222;57.346;12.150;2022-12-29T09:13:11;7.80;99.90
14277;DHT22;7222;57.346;12.150;2022-12-29T09:15:40;7.90;99.90
14277;DHT22;7222;57.346;12.150;2022-12-29T09:18:08;7.80;99.90
14277;DHT22;7222;57.346;12.150;2022-12-29T09:20:35;7.80;99.90
14277;DHT22;7222;57.346;12.150;2022-12-29T09:23:03;7.90;99.90
14277;DHT22;7222;57.346;12.150;2022-12-29T09:25:31;7.80;99.90
14277;DHT22;7222;57.346;12.150;2022-12-29T09:27:58;7.70;99.90
14277;DHT22;7222;57.346;12.150;2022-12-29T09:30:28;7.80;99.90
14277;DHT22;7222;57.346;12.150;2022-12-29T09:32:56;7.90;99.90
14277;DHT22;7222;57.346;12.150;2022-12-29T09:35:23;7.90;99.90
14277;DHT22;7222;57.346;12.150;2022-12-29T09:37:50;7.90;99.90
14277;DHT22;7222;57.346;12.150;2022-12-29T09:40:26;7.90;99.90
14277;DHT22;7222;57.346;12.150;2022-12-29T09:43:09;8.00;99.90
14277;DHT22;7222;57.346;12.150;2022-12-29T09:45:43;8.00;99.90
14277;DHT22;7222;57.346;12.150;2022-12-29T09:48:17;8.00;99.90
14277;DHT22;7222;57.346;12.150;2022-12-29T09:50:48;8.10;99.90
14277;DHT22;7222;57.346;12.150;2022-12-29T09:53:20;8.10;99.90
14277;DHT22;7222;57.346;12.150;2022-12-29T09:55:49;8.00;99.90
14277;DHT22;7222;57.346;12.150;2022-12-29T09:58:22;7.90;99.90
14277;DHT22;7222;57.346;12.150;2022-12-29T10:00:56;7.90;99.90
14277;DHT22;7222;57.346;12.150;2022-12-29T10:03:31;8.00;99.90
14277;DHT22;7222;57.346;12.150;2022-12-29T10:06:08;7.90;99.90
14277;DHT22;7222;57.346;12.150;2022-12-29T10:08:40;8.00;99.90
14277;DHT22;7222;57.346;12.150;2022-12-29T10:11:15;7.90;99.90
14277;DHT22;7222;57.346;12.150;2022-12-29T10:14:05;7.90;99.90
14277;DHT22;7222;57.346;12.150;2022-12-29T10:16:39;7.90;99.90
14277;DHT22;7222;57.346;12.150;2022-12-29T10:19:24;7.90;99.90
14277;DHT22;7222;57.346;12.150;2022-12-29T10:22:05;7.90;99.90
14277;DHT22;7222;57.346;12.150;2022-12-29T10:24:39;7.90;99.90
14277;DHT22;7222;57.346;12.150;2022-12-29T10:27:10;7.90;99.90
14277;DHT22;7222;57.346;12.150;2022-12-29T10:29:42;7.80;99.90
14277;DHT22;7222;57.346;12.150;2022-12-29T10:32:21;7.80;99.90
14277;DHT22;7222;57.346;12.150;2022-12-29T10:34:54;7.80;99.90
14277;DHT22;7222;57.346;12.150;2022-12-29T10:37:31;7.90;99.90
14277;DHT22;7222;57.346;12.150;2022-12-29T10:40:09;7.80;99.90
14277;DHT22;7222;57.346;12.150;2022-12-29T10:42:42;7.80;99.90
14277;DHT22;7222;57.346;12.150;2022-12-29T10:45:13;7.80;99.90
14277;DHT22;7222;57.346;12.150;2022-12-29T10:47:50;7.70;99.90
14277;DHT22;7222;57.346;12.150;2022-12-29T10:50:19;7.80;99.90
14277;DHT22;7222;57.346;12.150;2022-12-29T10:52:47;7.80;99.90
14277;DHT22;7222;57.346;12.150;2022-12-29T10:55:19;7.80;99.90
14277;DHT22;7222;57.346;12.150;2022-12-29T10:57:48;7.80;99.90
14277;DHT22;7222;57.346;12.150;2022-12-29T11:00:18;7.80;99.90
14277;DHT22;7222;57.346;12.150;2022-12-29T11:05:49;7.80;99.90
14277;DHT22;7222;57.346;12.150;2022-12-29T11:08:20;7.80;99.90
14277;DHT22;7222;57.346;12.150;2022-12-29T11:10:58;7.80;99.90
14277;DHT22;7222;57.346;12.150;2022-12-29T11:13:27;7.80;99.90
14277;DHT22;7222;57.346;12.150;2022-12-29T11:15:55;7.90;99.90
14277;DHT22;7222;57.346;12.150;2022-12-29T11:18:23;7.90;99.90
14277;DHT22;7222;57.346;12.150;2022-12-29T11:20:55;7.90;99.90
14277;DHT22;7222;57.346;12.150;2022-12-29T11:23:32;7.90;99.90
14277;DHT22;7222;57.346;12.150;2022-12-29T11:26:13;7.90;99.90
14277;DHT22;7222;57.346;12.150;2022-12-29T11:28:43;7.90;99.90
14277;DHT22;7222;57.346;12.150;2022-12-29T11:31:12;7.90;99.90
14277;DHT22;7222;57.346;12.150;2022-12-29T11:33:42;7.90;99.90
14277;DHT22;7222;57.346;12.150;2022-12-29T11:36:14;7.90;99.90
14277;DHT22;7222;57.346;12.150;2022-12-29T11:38:46;7.90;99.90
14277;DHT22;7222;57.346;12.150;2022-12-29T11:41:20;7.90;99.90
14277;DHT22;7222;57.346;12.150;2022-12-29T11:43:49;7.90;99.90
14277;DHT22;7222;57.346;12.150;2022-12-29T11:46:18;7.90;99.90
14277;DHT22;7222;57.346;12.150;2022-12-29T11:48:47;7.90;99.90
14277;DHT22;7222;57.346;12.150;2022-12-29T11:51:23;7.90;99.90
14277;DHT22;7222;57.346;12.150;2022-12-29T11:53:52;7.80;99.90
14277;DHT22;7222;57.346;12.150;2022-12-29T11:56:33;7.80;99.90
14277;DHT22;7222;57.346;12.150;2022-12-29T11:59:36;7.80;99.90
14277;DHT22;7222;57.346;12.150;2022-12-29T12:02:17;7.80;99.90
14277;DHT22;7222;57.346;12.150;2022-12-29T12:04:49;7.80;99.90
14277;DHT22;7222;57.346;12.150;2022-12-29T12:07:22;7.80;99.90
14277;DHT22;7222;57.346;12.150;2022-12-29T12:09:53;7.70;99.90
14277;DHT22;7222;57.346;12.150;2022-12-29T12:12:24;7.80;99.90
14277;DHT22;7222;57.346;12.150;2022-12-29T12:14:55;7.80;99.90
14277;DHT22;7222;57.346;12.150;2022-12-29T12:17:28;7.80;99.90
14277;DHT22;7222;57.346;12.150;2022-12-29T12:20:10;7.80;99.90
14277;DHT22;7222;57.346;12.150;2022-12-29T12:22:45;7.80;99.90
14277;DHT22;7222;57.346;12.150;2022-12-29T12:25:18;7.80;99.90
14277;DHT22;7222;57.346;12.150;2022-12-29T12:27:51;7.80;99.90
14277;DHT22;7222;57.346;12.150;2022-12-29T12:30:21;7.80;99.90
14277;DHT22;7222;57.346;12.150;2022-12-29T12:32:54;7.80;99.90
14277;DHT22;7222;57.346;12.150;2022-12-29T12:35:31;7.80;99.90
14277;DHT22;7222;57.346;12.150;2022-12-29T12:38:23;7.80;99.90
14277;DHT22;7222;57.346;12.150;2022-12-29T12:41:00;7.80;99.90
14277;DHT22;7222;57.346;12.150;2022-12-29T12:43:39;7.80;99.90
14277;DHT22;7222;57.346;12.150;2022-12-29T12:46:24;7.80;99.90
14277;DHT22;7222;57.346;12.150;2022-12-29T12:51:53;7.80;99.90
14277;DHT22;7222;57.346;12.150;2022-12-29T12:54:34;7.80;99.90
14277;DHT22;7222;57.346;12.150;2022-12-29T12:57:14;7.90;99.90
14277;DHT22;7222;57.346;12.150;2022-12-29T12:59:50;8.00;99.90
14277;DHT22;7222;57.346;12.150;2022-12-29T13:02:37;8.00;99.90
14277;DHT22;7222;57.346;12.150;2022-12-29T13:05:24;8.00;99.90
14277;DHT22;7222;57.346;12.150;2022-12-29T13:08:04;8.00;99.90
14277;DHT22;7222;57.346;12.150;2022-12-29T13:10:41;8.00;99.90
14277;DHT22;7222;57.346;12.150;2022-12-29T13:13:38;8.10;99.90
14277;DHT22;7222;57.346;12.150;2022-12-29T13:16:14;8.10;99.90
14277;DHT22;7222;57.346;12.150;2022-12-29T13:18:48;8.00;99.90
14277;DHT22;7222;57.346;12.150;2022-12-29T13:21:27;8.00;99.90
14277;DHT22;7222;57.346;12.150;2022-12-29T13:24:02;7.90;99.90
14277;DHT22;7222;57.346;12.150;2022-12-29T13:26:37;8.00;99.90
14277;DHT22;7222;57.346;12.150;2022-12-29T13:29:13;8.00;99.90
14277;DHT22;7222;57.346;12.150;2022-12-29T13:31:47;8.00;99.90
14277;DHT22;7222;57.346;12.150;2022-12-29T13:34:25;7.90;99.90
14277;DHT22;7222;57.346;12.150;2022-12-29T13:36:56;7.90;99.90
14277;DHT22;7222;57.346;12.150;2022-12-29T13:39:27;7.90;99.90
14277;DHT22;7222;57.346;12.150;2022-12-29T13:41:59;7.90;99.90
14277;DHT22;7222;57.346;12.150;2022-12-29T13:44:33;7.90;99.90
14277;DHT22;7222;57.346;12.150;2022-12-29T13:47:06;7.80;99.90
14277;DHT22;7222;57.346;12.150;2022-12-29T13:49:41;7.80;99.90
14277;DHT22;7222;57.346;12.150;2022-12-29T13:52:13;7.80;99.90
14277;DHT22;7222;57.346;12.150;2022-12-29T13:54:48;7.80;99.90
14277;DHT22;7222;57.346;12.150;2022-12-29T13:57:34;7.80;99.90
14277;DHT22;7222;57.346;12.150;2022-12-29T14:00:11;7.80;99.90
14277;DHT22;7222;57.346;12.150;2022-12-29T14:02:50;7.80;99.90
14277;DHT22;7222;57.346;12.150;2022-12-29T14:05:28;7.80;99.90
14277;DHT22;7222;57.346;12.150;2022-12-29T14:07:58;7.80;99.90
14277;DHT22;7222;57.346;12.150;2022-12-29T14:10:32;7.90;99.90
14277;DHT22;7222;57.346;12.150;2022-12-29T14:13:05;7.80;99.90
14277;DHT22;7222;57.346;12.150;2022-12-29T14:15:33;7.80;99.90
14277;DHT22;7222;57.346;12.150;2022-12-29T14:18:13;7.80;99.90
14277;DHT22;7222;57.346;12.150;2022-12-29T14:20:51;7.70;99.90
14277;DHT22;7222;57.346;12.150;2022-12-29T14:23:29;7.70;99.90
14277;DHT22;7222;57.346;12.150;2022-12-29T14:26:18;7.70;99.90
14277;DHT22;7222;57.346;12.150;2022-12-29T14:29:22;7.70;99.90
14277;DHT22;7222;57.346;12.150;2022-12-29T14:32:37;7.70;99.90
14277;DHT22;7222;57.346;12.150;2022-12-29T14:35:37;7.70;99.90
14277;DHT22;7222;57.346;12.150;2022-12-29T14:38:16;7.70;99.90
14277;DHT22;7222;57.346;12.150;2022-12-29T14:40:44;7.70;99.90
14277;DHT22;7222;57.346;12.150;2022-12-29T14:43:14;7.70;99.90
14277;DHT22;7222;57.346;12.150;2022-12-29T14:45:52;7.60;99.90
14277;DHT22;7222;57.346;12.150;2022-12-29T14:48:36;7.60;99.90
14277;DHT22;7222;57.346;12.150;2022-12-29T14:51:24;7.60;99.90
14277;DHT22;7222;57.346;12.150;2022-12-29T14:53:54;7.60;99.90
14277;DHT22;7222;57.346;12.150;2022-12-29T14:56:34;7.60;99.90
14277;DHT22;7222;57.346;12.150;2022-12-29T14:59:12;7.60;99.90
14277;DHT22;7222;57.346;12.150;2022-12-29T15:01:43;7.60;99.90
14277;DHT22;7222;57.346;12.150;2022-12-29T15:04:17;7.50;99.90
14277;DHT22;7222;57.346;12.150;2022-12-29T15:06:46;7.50;99.90
14277;DHT22;7222;57.346;12.150;2022-12-29T15:09:23;7.50;99.90
14277;DHT22;7222;57.346;12.150;2022-12-29T15:11:53;7.40;99.90
14277;DHT22;7222;57.346;12.150;2022-12-29T15:14:32;7.40;99.90
14277;DHT22;7222;57.346;12.150;2022-12-29T15:17:08;7.40;99.90
14277;DHT22;7222;57.346;12.150;2022-12-29T15:19:38;7.40;99.90
14277;DHT22;7222;57.346;12.150;2022-12-29T15:22:05;7.40;99.90
14277;DHT22;7222;57.346;12.150;2022-12-29T15:24:33;7.30;99.90
14277;DHT22;7222;57.346;12.150;2022-12-29T15:27:03;7.20;99.90
14277;DHT22;7222;57.346;12.150;2022-12-29T15:29:32;7.20;99.90
14277;DHT22;7222;57.346;12.150;2022-12-29T15:32:16;7.20;99.90
14277;DHT22;7222;57.346;12.150;2022-12-29T15:34:46;7.10;99.90
14277;DHT22;7222;57.346;12.150;2022-12-29T15:37:22;7.10;99.90
14277;DHT22;7222;57.346;12.150;2022-12-29T15:39:51;7.10;99.90
14277;DHT22;7222;57.346;12.150;2022-12-29T15:42:47;7.10;99.90
14277;DHT22;7222;57.346;12.150;2022-12-29T15:45:16;7.20;99.90
14277;DHT22;7222;57.346;12.150;2022-12-29T15:47:45;7.40;99.90
14277;DHT22;7222;57.346;12.150;2022-12-29T15:50:22;7.40;99.90
14277;DHT22;7222;57.346;12.150;2022-12-29T15:52:50;7.30;99.90
14277;DHT22;7222;57.346;12.150;2022-12-29T15:55:20;7.30;99.90
14277;DHT22;7222;57.346;12.150;2022-12-29T15:57:48;7.30;99.90
14277;DHT22;7222;57.346;12.150;2022-12-29T16:00:31;7.30;99.90
14277;DHT22;7222;57.346;12.150;2022-12-29T16:03:00;7.40;99.90
14277;DHT22;7222;57.346;12.150;2022-12-29T16:05:33;7.30;99.90
14277;DHT22;7222;57.346;12.150;2022-12-29T16:08:02;7.40;99.90
14277;DHT22;7222;57.346;12.150;2022-12-29T16:10:33;7.40;99.90
14277;DHT22;7222;57.346;12.150;2022-12-29T16:13:05;7.40;99.90
14277;DHT22;7222;57.346;12.150;2022-12-29T16:15:33;7.40;99.90
14277;DHT22;7222;57.346;12.150;2022-12-29T16:18:00;7.40;99.90
14277;DHT22;7222;57.346;12.150;2022-12-29T16:20:39;7.50;99.90
14277;DHT22;7222;57.346;12.150;2022-12-29T16:23:17;7.40;99.90
14277;DHT22;7222;57.346;12.150;2022-12-29T16:25:45;7.50;99.90